Time;durP1;ratioP1;P1;durP2;ratioP2;P2;SDS_P1;SDS_P2;PMS_P1;PMS_P2;Temp;Humidity;BMP_temperature;BMP_pressure;BME280_temperature;BME280_humidity;BME280_pressure;Samples;Min_cycle;Max_cycle;Signal;HPM_P1;HPM_P2
2023/08/22 00:02:04;;;;;;;2.40;2.20;;;18.60;99.90;;;;;;5052536;28;20210;-73
2023/08/22 00:04:49;;;;;;;5.03;2.40;;;18.60;99.90;;;;;;5035084;28;20261;-73
2023/08/22 00:07:33;;;;;;;5.32;2.58;;;18.50;99.90;;;;;;5039363;28;20271;-74
2023/08/22 00:10:17;;;;;;;5.18;2.50;;;18.50;99.90;;;;;;5037424;28;20248;-72
2023/08/22 00:13:03;;;;;;;8.05;2.60;;;18.40;99.90;;;;;;5036493;28;20213;-74
2023/08/22 00:15:48;;;;;;;3.50;2.53;;;18.40;99.90;;;;;;5054518;28;20209;-74
2023/08/22 00:18:35;;;;;;;3.38;2.20;;;18.40;99.90;;;;;;5036007;28;20187;-76
2023/08/22 00:21:22;;;;;;;5.95;2.72;;;18.40;99.90;;;;;;5034146;28;20202;-74
2023/08/22 00:24:07;;;;;;;4.00;2.17;;;18.40;99.90;;;;;;5038437;28;20194;-74
2023/08/22 00:26:51;;;;;;;3.85;2.45;;;18.40;99.90;;;;;;5040405;28;20618;-75
2023/08/22 00:29:35;;;;;;;4.28;2.45;;;18.40;99.90;;;;;;5038090;28;20267;-74
2023/08/22 00:32:19;;;;;;;3.95;2.55;;;18.40;99.90;;;;;;5040791;28;20224;-75
2023/08/22 00:35:04;;;;;;;4.00;2.63;;;18.40;99.90;;;;;;5038691;28;20218;-75
2023/08/22 00:37:48;;;;;;;4.18;2.55;;;18.30;99.90;;;;;;5039884;28;20290;-73
2023/08/22 00:40:32;;;;;;;4.85;2.35;;;18.30;99.90;;;;;;5027099;28;20202;-73
2023/08/22 00:43:16;;;;;;;6.25;2.47;;;18.30;99.90;;;;;;5034802;28;20214;-75
2023/08/22 00:46:01;;;;;;;4.95;2.53;;;18.30;99.90;;;;;;5039696;28;20195;-73
2023/08/22 00:48:46;;;;;;;5.18;2.85;;;18.40;99.90;;;;;;5050524;28;20721;-74
2023/08/22 00:51:33;;;;;;;6.15;2.97;;;18.30;99.90;;;;;;5045910;28;20312;-75
2023/08/22 00:54:19;;;;;;;5.28;2.70;;;18.30;99.90;;;;;;5039141;28;20245;-73
2023/08/22 00:57:04;;;;;;;4.70;2.88;;;18.30;99.90;;;;;;5041192;28;20182;-75
2023/08/22 00:59:48;;;;;;;3.67;2.22;;;18.30;99.90;;;;;;5039071;28;20191;-74
2023/08/22 01:02:33;;;;;;;4.80;2.67;;;18.30;99.90;;;;;;5038329;28;20210;-72
2023/08/22 01:05:17;;;;;;;5.72;2.80;;;18.30;99.90;;;;;;5035389;28;20385;-75
2023/08/22 01:08:11;;;;;;;4.47;2.75;;;18.40;99.90;;;;;;5046556;28;20195;-75
2023/08/22 01:11:03;;;;;;;3.08;2.22;;;18.40;99.90;;;;;;5050273;28;20260;-74
2023/08/22 01:13:51;;;;;;;4.78;2.80;;;18.40;99.90;;;;;;5025621;28;20295;-75
2023/08/22 01:16:37;;;;;;;2.35;2.15;;;18.40;99.90;;;;;;5037850;28;20195;-74
2023/08/22 01:19:22;;;;;;;4.70;2.70;;;18.30;99.90;;;;;;5037885;28;20187;-74
2023/08/22 01:22:07;;;;;;;3.92;2.60;;;18.40;99.90;;;;;;5041886;28;20261;-73
2023/08/22 01:24:51;;;;;;;3.70;2.42;;;18.40;99.90;;;;;;5047367;28;20195;-74
2023/08/22 01:27:53;;;;;;;4.90;2.78;;;18.40;99.90;;;;;;5042618;28;20198;-72
2023/08/22 01:30:46;;;;;;;4.85;3.20;;;18.30;99.90;;;;;;5047206;28;20198;-74
2023/08/22 01:33:42;;;;;;;4.57;3.40;;;18.30;99.90;;;;;;5039683;28;20219;-72
2023/08/22 01:36:28;;;;;;;6.82;3.35;;;18.30;99.90;;;;;;5055525;28;20242;-74
2023/08/22 01:39:16;;;;;;;6.28;4.07;;;18.30;99.90;;;;;;5037296;28;20201;-73
2023/08/22 01:42:00;;;;;;;6.20;3.88;;;18.30;99.90;;;;;;5038810;28;20226;-74
2023/08/22 01:44:45;;;;;;;6.93;3.50;;;18.30;99.90;;;;;;5043299;28;20233;-73
2023/08/22 01:47:30;;;;;;;4.25;3.50;;;18.30;99.90;;;;;;5049007;28;20194;-73
2023/08/22 01:50:15;;;;;;;4.78;3.22;;;18.30;99.90;;;;;;5038777;28;20211;-74
2023/08/22 01:53:00;;;;;;;7.80;3.80;;;18.30;99.90;;;;;;5038325;28;20269;-75
2023/08/22 01:55:44;;;;;;;8.05;4.03;;;18.30;99.90;;;;;;5053710;28;20635;-74
2023/08/22 01:58:28;;;;;;;6.07;3.65;;;18.30;99.90;;;;;;5037492;28;20266;-73
2023/08/22 02:01:13;;;;;;;5.53;3.10;;;18.30;99.90;;;;;;5036110;28;20186;-74
2023/08/22 02:04:03;;;;;;;5.00;2.95;;;18.30;99.90;;;;;;5037674;28;20287;-74
2023/08/22 02:06:48;;;;;;;5.93;3.42;;;18.40;99.90;;;;;;5053407;28;20255;-74
2023/08/22 02:09:32;;;;;;;5.18;3.15;;;18.30;99.90;;;;;;5046634;28;20641;-73
2023/08/22 02:12:16;;;;;;;8.10;3.70;;;18.30;99.90;;;;;;5040830;28;20210;-75
2023/08/22 02:15:00;;;;;;;6.43;3.42;;;18.30;99.90;;;;;;5038709;28;20217;-74
2023/08/22 02:17:45;;;;;;;5.28;3.25;;;18.30;99.90;;;;;;5039418;28;20217;-73
2023/08/22 02:20:30;;;;;;;3.75;2.97;;;18.30;99.90;;;;;;5037467;28;20206;-74
2023/08/22 02:23:14;;;;;;;3.33;3.03;;;18.30;99.90;;;;;;5036703;28;20292;-74
2023/08/22 02:25:58;;;;;;;5.07;3.20;;;18.20;99.90;;;;;;5040436;28;20233;-74
2023/08/22 02:28:43;;;;;;;9.77;3.50;;;18.30;99.90;;;;;;5031811;28;20203;-75
2023/08/22 02:31:27;;;;;;;5.22;3.60;;;18.20;99.90;;;;;;5056292;28;20182;-74
2023/08/22 02:34:12;;;;;;;4.20;3.50;;;18.20;99.90;;;;;;5046497;28;20260;-73
2023/08/22 02:36:56;;;;;;;3.55;3.15;;;18.20;99.90;;;;;;5041571;28;20179;-75
2023/08/22 02:39:40;;;;;;;4.60;3.33;;;18.30;99.90;;;;;;5042624;28;20264;-75
2023/08/22 02:42:25;;;;;;;5.40;3.30;;;18.20;99.90;;;;;;5031551;28;20270;-73
2023/08/22 02:45:09;;;;;;;7.32;3.47;;;18.20;99.90;;;;;;5037283;28;20206;-74
2023/08/22 02:47:54;;;;;;;3.72;3.10;;;18.20;99.90;;;;;;5038227;28;20236;-74
2023/08/22 02:50:38;;;;;;;7.75;3.20;;;18.20;99.90;;;;;;5040455;28;20187;-73
2023/08/22 02:53:22;;;;;;;3.88;3.25;;;18.20;99.90;;;;;;5035893;28;20277;-75
2023/08/22 02:56:06;;;;;;;3.92;3.10;;;18.20;99.90;;;;;;5041241;28;20245;-74
2023/08/22 02:58:50;;;;;;;6.77;3.67;;;18.20;99.90;;;;;;5039631;28;20218;-74
2023/08/22 03:01:35;;;;;;;8.30;3.47;;;18.20;99.90;;;;;;5040669;28;20714;-74
2023/08/22 03:04:19;;;;;;;5.23;3.70;;;18.10;99.90;;;;;;5035054;28;20245;-74
2023/08/22 03:07:04;;;;;;;5.43;4.07;;;18.10;99.90;;;;;;5035171;28;20227;-73
2023/08/22 03:09:49;;;;;;;4.32;3.88;;;18.10;99.90;;;;;;5040606;28;20198;-74
2023/08/22 03:12:34;;;;;;;5.38;3.88;;;18.10;99.90;;;;;;5037608;28;20218;-74
2023/08/22 03:15:18;;;;;;;6.43;4.13;;;18.10;99.90;;;;;;5036280;28;20207;-73
2023/08/22 03:18:03;;;;;;;6.57;4.10;;;18.10;99.90;;;;;;5035953;28;20201;-74
2023/08/22 03:20:47;;;;;;;6.07;4.13;;;18.10;99.90;;;;;;5052836;28;20236;-72
2023/08/22 03:23:31;;;;;;;4.00;3.65;;;18.10;99.90;;;;;;5038196;28;20207;-73
2023/08/22 03:26:16;;;;;;;6.13;4.57;;;18.10;99.90;;;;;;5036083;28;20242;-72
2023/08/22 03:29:00;;;;;;;9.45;4.22;;;18.10;99.90;;;;;;5032322;28;20196;-74
2023/08/22 03:31:45;;;;;;;9.03;4.03;;;18.00;99.90;;;;;;5053559;28;20350;-74
2023/08/22 03:34:29;;;;;;;7.10;4.20;;;18.00;99.90;;;;;;5048555;28;20342;-73
2023/08/22 03:37:13;;;;;;;5.18;3.67;;;18.00;99.90;;;;;;5049297;28;20197;-74
2023/08/22 03:39:58;;;;;;;6.07;3.90;;;18.00;99.90;;;;;;5039439;28;20264;-74
2023/08/22 03:42:42;;;;;;;4.70;4.13;;;18.00;99.90;;;;;;5038038;28;20230;-72
2023/08/22 03:45:26;;;;;;;5.60;4.18;;;18.00;99.90;;;;;;5040591;28;20237;-72
2023/08/22 03:48:10;;;;;;;6.60;4.50;;;18.00;99.90;;;;;;5045162;28;20226;-72
2023/08/22 03:50:55;;;;;;;5.30;3.72;;;17.90;99.90;;;;;;5046217;28;20213;-72
2023/08/22 03:53:39;;;;;;;7.40;4.15;;;18.00;99.90;;;;;;5039990;28;20203;-72
2023/08/22 03:56:24;;;;;;;6.53;3.97;;;18.00;99.90;;;;;;5031188;28;20225;-72
2023/08/22 03:59:07;;;;;;;10.02;4.25;;;18.00;99.90;;;;;;5034672;28;20194;-72
2023/08/22 04:01:53;;;;;;;5.57;4.10;;;18.00;99.90;;;;;;5033046;28;20226;-72
2023/08/22 04:04:37;;;;;;;8.03;4.10;;;18.00;99.90;;;;;;5035706;28;20738;-73
2023/08/22 04:07:21;;;;;;;7.93;4.30;;;17.90;99.90;;;;;;5030995;28;20190;-72
2023/08/22 04:10:05;;;;;;;9.93;4.40;;;17.90;99.90;;;;;;5033264;28;20241;-72
2023/08/22 04:12:49;;;;;;;5.68;3.83;;;17.90;99.90;;;;;;5034105;28;20434;-72
2023/08/22 04:15:35;;;;;;;9.43;4.70;;;17.90;99.90;;;;;;5031923;28;20276;-72
2023/08/22 04:18:20;;;;;;;10.23;4.38;;;17.90;99.90;;;;;;5032762;28;20203;-73
2023/08/22 04:21:04;;;;;;;6.53;5.00;;;17.90;99.90;;;;;;5029616;28;20241;-71
2023/08/22 04:23:48;;;;;;;9.45;4.80;;;18.00;99.90;;;;;;5036993;28;20258;-73
2023/08/22 04:26:32;;;;;;;8.10;5.05;;;17.90;99.90;;;;;;5034816;28;20221;-72
2023/08/22 04:29:16;;;;;;;7.95;4.97;;;17.90;99.90;;;;;;5050294;28;20641;-72
2023/08/22 04:32:03;;;;;;;9.13;5.60;;;17.90;99.90;;;;;;5033527;28;20214;-72
2023/08/22 04:34:47;;;;;;;8.10;4.78;;;17.90;99.90;;;;;;5032219;28;20725;-72
2023/08/22 04:37:31;;;;;;;10.82;4.57;;;17.90;99.90;;;;;;5038776;28;20209;-71
2023/08/22 04:40:15;;;;;;;7.95;4.65;;;17.90;99.90;;;;;;5031193;28;20598;-72
2023/08/22 04:42:59;;;;;;;11.05;5.18;;;17.90;99.90;;;;;;5040506;28;20252;-72
2023/08/22 04:45:43;;;;;;;11.83;5.00;;;17.90;99.90;;;;;;5034894;28;20635;-72
2023/08/22 04:48:30;;;;;;;7.57;4.45;;;17.90;99.90;;;;;;5033382;28;20182;-72
2023/08/22 04:51:15;;;;;;;10.90;5.38;;;17.90;99.90;;;;;;5036482;28;20212;-73
2023/08/22 04:53:59;;;;;;;5.95;4.43;;;17.90;99.90;;;;;;5036535;28;20560;-73
2023/08/22 04:56:43;;;;;;;10.93;5.13;;;17.90;99.90;;;;;;5046474;28;20222;-73
2023/08/22 04:59:27;;;;;;;7.80;4.95;;;17.90;99.90;;;;;;5031247;28;20208;-73
2023/08/22 05:02:12;;;;;;;9.88;5.28;;;17.90;99.90;;;;;;5042326;28;20210;-73
2023/08/22 05:04:56;;;;;;;12.30;5.25;;;17.90;99.90;;;;;;5037862;28;20690;-72
2023/08/22 05:07:40;;;;;;;6.03;4.63;;;17.90;99.90;;;;;;5058502;28;20244;-73
2023/08/22 05:10:24;;;;;;;16.57;5.83;;;17.90;99.90;;;;;;5038896;28;20191;-73
2023/08/22 05:13:08;;;;;;;7.85;5.53;;;17.90;99.90;;;;;;5038569;28;20214;-73
2023/08/22 05:15:52;;;;;;;10.40;5.40;;;17.90;99.90;;;;;;5036021;28;20299;-73
2023/08/22 05:18:36;;;;;;;9.48;5.55;;;17.90;99.90;;;;;;5035575;28;20198;-73
2023/08/22 05:21:20;;;;;;;18.00;5.90;;;17.90;99.90;;;;;;5036520;28;20190;-73
2023/08/22 05:24:05;;;;;;;10.70;6.15;;;17.90;99.90;;;;;;5054617;28;20186;-73
2023/08/22 05:26:49;;;;;;;21.30;6.50;;;18.00;99.90;;;;;;5057553;28;20201;-73
2023/08/22 05:29:33;;;;;;;16.88;6.95;;;18.00;99.90;;;;;;5057011;28;20191;-73
2023/08/22 05:32:17;;;;;;;16.85;6.10;;;18.00;99.90;;;;;;5045916;28;20226;-73
2023/08/22 05:35:01;;;;;;;12.90;6.57;;;18.10;99.90;;;;;;5036672;28;20214;-73
2023/08/22 05:37:45;;;;;;;13.63;6.10;;;18.10;99.90;;;;;;5051843;28;20191;-72
2023/08/22 05:40:30;;;;;;;14.95;6.55;;;18.10;99.90;;;;;;5059374;28;20203;-72
2023/08/22 05:43:14;;;;;;;14.05;6.88;;;18.20;99.90;;;;;;5036908;28;20210;-72
2023/08/22 05:45:58;;;;;;;13.65;6.50;;;18.20;99.90;;;;;;5039895;28;20205;-72
2023/08/22 05:48:42;;;;;;;10.05;7.35;;;18.30;99.90;;;;;;5039620;28;20772;-73
2023/08/22 05:51:26;;;;;;;17.00;7.60;;;18.30;99.90;;;;;;5046870;28;20238;-72
2023/08/22 05:54:10;;;;;;;14.68;7.43;;;18.30;99.90;;;;;;5034441;28;20628;-72
2023/08/22 05:56:54;;;;;;;12.93;7.90;;;18.40;99.90;;;;;;5040573;28;20186;-73
2023/08/22 05:59:38;;;;;;;16.42;8.27;;;18.50;99.90;;;;;;5033313;28;20187;-72
2023/08/22 06:02:22;;;;;;;12.52;7.65;;;18.60;99.90;;;;;;5031394;28;20210;-72
2023/08/22 06:05:07;;;;;;;11.25;7.18;;;18.60;99.90;;;;;;5050045;28;20233;-72
2023/08/22 06:07:51;;;;;;;14.05;7.80;;;18.70;99.90;;;;;;5040255;28;20264;-72
2023/08/22 06:10:35;;;;;;;12.82;8.27;;;18.70;99.90;;;;;;5041221;28;20190;-72
2023/08/22 06:13:19;;;;;;;14.52;8.30;;;18.70;99.90;;;;;;5054549;28;20218;-73
2023/08/22 06:16:03;;;;;;;11.95;7.53;;;18.70;99.90;;;;;;5054255;28;20263;-72
2023/08/22 06:18:47;;;;;;;14.52;7.80;;;18.80;99.90;;;;;;5047461;28;20223;-73
2023/08/22 06:21:31;;;;;;;15.32;8.23;;;18.80;99.90;;;;;;5051561;28;20673;-73
2023/08/22 06:24:15;;;;;;;32.40;8.77;;;18.80;99.90;;;;;;5055351;28;20245;-73
2023/08/22 06:26:59;;;;;;;20.85;9.43;;;18.80;99.90;;;;;;5044746;28;20190;-72
2023/08/22 06:29:44;;;;;;;13.60;8.75;;;18.90;99.90;;;;;;5051853;28;20191;-72
2023/08/22 06:32:27;;;;;;;13.80;8.05;;;18.90;99.90;;;;;;5049930;28;20751;-71
2023/08/22 06:35:12;;;;;;;9.32;7.43;;;18.90;99.90;;;;;;5050637;28;20260;-71
2023/08/22 06:37:56;;;;;;;11.07;7.78;;;18.90;99.90;;;;;;5045388;28;20240;-71
2023/08/22 06:40:40;;;;;;;14.07;8.10;;;19.00;99.90;;;;;;5036258;28;20182;-72
2023/08/22 06:43:24;;;;;;;10.77;7.53;;;19.00;99.90;;;;;;5055751;28;20257;-71
2023/08/22 06:46:08;;;;;;;9.32;7.25;;;19.10;99.90;;;;;;5054102;28;20278;-71
2023/08/22 06:48:52;;;;;;;10.52;7.32;;;19.10;99.90;;;;;;5045870;28;20245;-72
2023/08/22 06:51:36;;;;;;;12.60;7.25;;;19.10;99.90;;;;;;5033395;28;20219;-72
2023/08/22 06:54:20;;;;;;;8.68;7.53;;;19.20;99.90;;;;;;5051900;28;20210;-71
2023/08/22 06:57:04;;;;;;;10.40;8.02;;;19.20;99.90;;;;;;5048316;28;20604;-71
2023/08/22 06:59:48;;;;;;;8.73;7.43;;;19.30;99.90;;;;;;5035752;28;20202;-72
2023/08/22 07:02:32;;;;;;;11.50;7.38;;;19.20;99.90;;;;;;5040129;28;20253;-71
2023/08/22 07:05:17;;;;;;;11.80;7.63;;;19.30;99.90;;;;;;5032192;28;20306;-71
2023/08/22 07:08:01;;;;;;;11.63;7.50;;;19.30;99.90;;;;;;5038728;28;20218;-71
2023/08/22 07:10:45;;;;;;;12.25;7.85;;;19.40;99.90;;;;;;5044798;28;20666;-71
2023/08/22 07:13:30;;;;;;;16.58;7.88;;;19.50;99.90;;;;;;5043108;28;20261;-72
2023/08/22 07:16:14;;;;;;;12.80;8.23;;;19.50;99.90;;;;;;5050026;28;20262;-71
2023/08/22 07:18:58;;;;;;;12.77;8.38;;;19.50;99.90;;;;;;5049318;28;20190;-71
2023/08/22 07:21:42;;;;;;;14.23;7.97;;;19.60;99.90;;;;;;5034545;28;20229;-71
2023/08/22 07:24:27;;;;;;;15.68;8.52;;;19.70;99.90;;;;;;5056288;28;20197;-71
2023/08/22 07:27:11;;;;;;;15.60;8.45;;;19.70;99.90;;;;;;5054251;28;20201;-72
2023/08/22 07:29:55;;;;;;;12.82;8.32;;;19.90;99.90;;;;;;5056216;28;20244;-71
2023/08/22 07:32:39;;;;;;;9.93;7.93;;;19.90;99.90;;;;;;5055949;28;20310;-71
2023/08/22 07:35:24;;;;;;;10.60;7.88;;;20.00;99.90;;;;;;5049747;28;20214;-71
2023/08/22 07:38:08;;;;;;;14.60;7.63;;;20.10;99.90;;;;;;5053620;28;20199;-71
2023/08/22 07:40:52;;;;;;;10.63;8.20;;;20.20;99.90;;;;;;5057897;28;20262;-72
2023/08/22 07:43:36;;;;;;;16.45;8.40;;;20.30;99.90;;;;;;5033445;28;20256;-72
2023/08/22 07:46:20;;;;;;;12.38;7.78;;;20.40;99.90;;;;;;5059663;28;20628;-72
2023/08/22 07:49:04;;;;;;;12.43;7.95;;;20.50;99.90;;;;;;5036901;28;20222;-71
2023/08/22 07:51:49;;;;;;;10.70;7.70;;;20.60;99.90;;;;;;5033900;28;20210;-72
2023/08/22 07:54:33;;;;;;;10.40;8.20;;;20.60;99.90;;;;;;5034398;28;20218;-72
2023/08/22 07:57:17;;;;;;;10.27;7.93;;;20.70;99.90;;;;;;5033549;28;20251;-72
2023/08/22 08:00:07;;;;;;;11.40;8.13;;;20.80;99.90;;;;;;5031302;28;20190;-72
2023/08/22 08:02:52;;;;;;;22.00;8.55;;;20.80;99.90;;;;;;5054283;28;20210;-72
2023/08/22 08:05:36;;;;;;;12.98;8.75;;;20.90;99.90;;;;;;5049413;28;20225;-72
2023/08/22 08:08:20;;;;;;;30.85;9.98;;;21.00;99.90;;;;;;5036789;28;20245;-72
2023/08/22 08:11:04;;;;;;;19.15;7.90;;;21.00;99.90;;;;;;5051121;28;20194;-72
2023/08/22 08:13:48;;;;;;;10.20;7.55;;;21.10;99.90;;;;;;5058205;28;20206;-72
2023/08/22 08:16:32;;;;;;;11.15;6.95;;;21.20;99.90;;;;;;5051694;28;20666;-73
2023/08/22 08:19:17;;;;;;;10.77;7.10;;;21.30;99.90;;;;;;5050688;28;20194;-72
2023/08/22 08:22:01;;;;;;;11.90;7.10;;;21.30;99.90;;;;;;5038111;28;20701;-72
2023/08/22 08:24:45;;;;;;;14.85;6.80;;;21.40;99.90;;;;;;5030424;28;20218;-72
2023/08/22 08:27:29;;;;;;;18.23;6.80;;;21.50;99.90;;;;;;5054369;28;20198;-72
2023/08/22 08:30:14;;;;;;;9.57;5.38;;;21.50;99.90;;;;;;5046545;28;20202;-71
2023/08/22 08:32:58;;;;;;;9.40;5.78;;;21.60;99.90;;;;;;5044928;28;20233;-72
2023/08/22 08:35:42;;;;;;;8.65;5.55;;;21.70;99.90;;;;;;5035384;28;20210;-73
2023/08/22 08:38:26;;;;;;;13.35;6.32;;;21.80;99.90;;;;;;5043309;28;20280;-72
2023/08/22 08:41:10;;;;;;;10.90;5.70;;;21.80;99.90;;;;;;5038408;28;20203;-73
2023/08/22 08:43:56;;;;;;;15.48;6.80;;;21.90;99.90;;;;;;5038806;28;20230;-71
2023/08/22 08:46:42;;;;;;;14.55;6.68;;;21.90;99.90;;;;;;5052683;28;20186;-73
2023/08/22 08:49:27;;;;;;;15.38;5.50;;;22.00;99.90;;;;;;5042054;28;20194;-73
2023/08/22 08:52:12;;;;;;;9.80;5.15;;;22.00;99.90;;;;;;5053105;28;20206;-73
2023/08/22 08:54:58;;;;;;;13.02;6.13;;;22.00;99.90;;;;;;5050160;28;20209;-73
2023/08/22 08:57:42;;;;;;;7.22;4.20;;;22.00;99.90;;;;;;5048145;28;20768;-73
2023/08/22 09:00:26;;;;;;;10.07;4.05;;;22.10;99.90;;;;;;5049778;28;20199;-72
2023/08/22 09:03:11;;;;;;;10.88;4.47;;;22.10;99.90;;;;;;5052917;28;20226;-73
2023/08/22 09:05:55;;;;;;;7.35;4.82;;;22.20;99.90;;;;;;5029308;28;20190;-73
2023/08/22 09:08:39;;;;;;;12.85;5.05;;;22.20;99.90;;;;;;5038871;28;20670;-73
2023/08/22 09:11:26;;;;;;;7.68;4.45;;;22.30;99.90;;;;;;5037969;28;20275;-73
2023/08/22 09:14:10;;;;;;;9.80;4.03;;;22.30;99.90;;;;;;5038858;28;20286;-72
2023/08/22 09:16:59;;;;;;;6.10;3.75;;;22.40;99.90;;;;;;5035645;28;20233;-73
2023/08/22 09:19:44;;;;;;;10.18;3.78;;;22.40;99.90;;;;;;5056196;28;20704;-73
2023/08/22 09:22:30;;;;;;;7.53;3.65;;;22.40;99.90;;;;;;5044495;28;20222;-73
2023/08/22 09:25:15;;;;;;;7.25;3.78;;;22.50;99.90;;;;;;5037356;28;20237;-73
2023/08/22 09:28:00;;;;;;;6.43;3.53;;;22.60;99.90;;;;;;5054549;28;20218;-73
2023/08/22 09:30:50;;;;;;;6.40;2.85;;;22.60;99.90;;;;;;5048956;28;20193;-73
2023/08/22 09:33:48;;;;;;;5.15;3.05;;;22.70;99.90;;;;;;5037919;28;20254;-74
2023/08/22 09:36:44;;;;;;;5.28;3.15;;;22.80;99.90;;;;;;5053228;28;20190;-73
2023/08/22 09:39:33;;;;;;;4.38;2.50;;;22.80;99.90;;;;;;5044912;28;20190;-74
2023/08/22 09:42:17;;;;;;;5.03;2.90;;;22.90;99.90;;;;;;5030546;28;20270;-73
2023/08/22 09:45:03;;;;;;;6.60;2.70;;;23.00;99.90;;;;;;5036984;28;20286;-73
2023/08/22 09:47:50;;;;;;;4.90;1.88;;;23.00;99.90;;;;;;5042533;28;20636;-72
2023/08/22 09:50:42;;;;;;;4.05;2.30;;;23.10;99.90;;;;;;5040526;28;20190;-73
2023/08/22 09:53:28;;;;;;;4.18;2.60;;;23.10;99.90;;;;;;5046319;28;20222;-73
2023/08/22 09:56:13;;;;;;;7.93;2.28;;;23.20;99.90;;;;;;5035347;28;20313;-74
2023/08/22 09:59:01;;;;;;;2.58;1.77;;;23.30;99.90;;;;;;5050879;28;20247;-73
2023/08/22 10:01:47;;;;;;;3.88;2.00;;;23.30;99.90;;;;;;5047449;28;20265;-72
2023/08/22 10:04:32;;;;;;;3.78;1.80;;;23.40;99.90;;;;;;5031274;28;20824;-73
2023/08/22 10:07:17;;;;;;;4.28;2.13;;;23.50;99.90;;;;;;5034936;28;20190;-73
2023/08/22 10:10:03;;;;;;;5.63;1.98;;;23.50;99.90;;;;;;5037917;28;20226;-72
2023/08/22 10:12:47;;;;;;;4.50;2.50;;;23.60;99.90;;;;;;5014291;28;20693;-73
2023/08/22 10:15:33;;;;;;;8.23;2.92;;;23.60;99.90;;;;;;5036255;28;20633;-73
2023/08/22 10:18:24;;;;;;;4.72;2.40;;;23.60;99.90;;;;;;5034466;28;20183;-75
2023/08/22 10:21:08;;;;;;;3.70;2.97;;;23.70;99.90;;;;;;5036918;28;20245;-74
2023/08/22 10:23:52;;;;;;;5.15;2.83;;;23.90;99.90;;;;;;5035510;28;20187;-74
2023/08/22 10:26:49;;;;;;;4.28;2.30;;;24.00;99.90;;;;;;5031730;28;20194;-73
2023/08/22 10:29:35;;;;;;;4.32;2.33;;;24.10;99.90;;;;;;5034749;28;20724;-74
2023/08/22 10:32:21;;;;;;;6.70;2.28;;;24.10;99.90;;;;;;5046112;28;20349;-73
2023/08/22 10:35:14;;;;;;;4.60;1.60;;;24.10;99.90;;;;;;5040048;28;20214;-76
2023/08/22 10:38:01;;;;;;;4.30;1.95;;;24.20;99.90;;;;;;5051695;28;20211;-74
2023/08/22 10:40:53;;;;;;;5.57;2.80;;;24.30;99.90;;;;;;5047780;28;20219;-74
2023/08/22 10:43:38;;;;;;;5.93;2.63;;;24.30;99.90;;;;;;5058942;28;20570;-73
2023/08/22 10:46:59;;;;;;;3.80;2.83;;;24.30;99.90;;;;;;5041488;28;20181;-73
2023/08/22 10:49:48;;;;;;;5.25;2.97;;;24.20;99.90;;;;;;5043197;28;20196;-72
2023/08/22 10:52:33;;;;;;;6.75;3.38;;;24.20;99.90;;;;;;5033049;28;20342;-72
2023/08/22 10:55:24;;;;;;;4.40;3.38;;;24.20;99.90;;;;;;5049641;28;20202;-75
2023/08/22 10:58:32;;;;;;;5.43;3.03;;;24.30;99.90;;;;;;5028776;28;20238;-75
2023/08/22 11:01:16;;;;;;;16.52;2.72;;;24.30;99.90;;;;;;5036620;28;20217;-73
2023/08/22 11:04:01;;;;;;;5.10;2.70;;;24.20;99.90;;;;;;5055636;28;20186;-73
2023/08/22 11:06:45;;;;;;;3.53;3.08;;;24.20;99.90;;;;;;5043692;28;20286;-73
2023/08/22 11:09:33;;;;;;;4.30;2.17;;;24.20;99.90;;;;;;5046064;28;20199;-73
2023/08/22 11:12:19;;;;;;;6.85;2.42;;;24.30;99.90;;;;;;5037755;28;20287;-74
2023/08/22 11:15:04;;;;;;;4.25;2.97;;;24.40;99.90;;;;;;5037036;28;20218;-73
2023/08/22 11:17:50;;;;;;;11.30;3.65;;;24.40;99.90;;;;;;5038804;28;20191;-73
2023/08/22 11:20:34;;;;;;;7.40;3.33;;;24.50;99.90;;;;;;5035353;28;20195;-73
2023/08/22 11:23:18;;;;;;;4.35;2.60;;;24.60;99.90;;;;;;5046031;28;20245;-73
2023/08/22 11:26:10;;;;;;;5.72;3.33;;;24.50;99.90;;;;;;5035546;28;20226;-73
2023/08/22 11:28:55;;;;;;;3.33;2.10;;;24.50;99.90;;;;;;5036272;28;20195;-74
2023/08/22 11:31:39;;;;;;;4.00;2.17;;;24.50;99.90;;;;;;5051019;28;20218;-73
2023/08/22 11:34:23;;;;;;;5.75;2.20;;;24.50;99.90;;;;;;5032915;28;20203;-74
2023/08/22 11:37:09;;;;;;;6.75;2.50;;;24.60;99.90;;;;;;5035448;28;20198;-74
2023/08/22 11:39:54;;;;;;;7.88;3.17;;;24.60;99.90;;;;;;5033912;28;20186;-73
2023/08/22 11:42:39;;;;;;;3.97;2.63;;;24.70;99.90;;;;;;5035324;28;20205;-73
2023/08/22 11:45:25;;;;;;;4.95;2.70;;;24.80;99.90;;;;;;5039565;28;20261;-74
2023/08/22 11:48:09;;;;;;;5.28;2.28;;;24.80;99.90;;;;;;5024557;28;20709;-74
2023/08/22 11:50:53;;;;;;;3.42;2.20;;;24.80;99.90;;;;;;5041593;28;20202;-73
2023/08/22 11:53:38;;;;;;;3.80;2.03;;;24.80;99.90;;;;;;5044276;28;20237;-73
2023/08/22 11:56:22;;;;;;;4.88;1.75;;;24.90;99.90;;;;;;5033215;28;20218;-73
2023/08/22 11:59:09;;;;;;;4.20;1.92;;;24.90;99.90;;;;;;5033759;28;20198;-74
2023/08/22 12:01:54;;;;;;;4.78;2.08;;;25.10;99.90;;;;;;5047020;28;20620;-73
2023/08/22 12:04:43;;;;;;;3.10;1.88;;;25.10;99.90;;;;;;5032546;28;20199;-73
2023/08/22 12:07:27;;;;;;;4.53;2.10;;;25.10;99.90;;;;;;5032419;28;20207;-74
2023/08/22 12:10:13;;;;;;;3.22;1.70;;;25.10;99.90;;;;;;5032056;28;20198;-73
2023/08/22 12:12:57;;;;;;;2.63;1.48;;;25.10;99.90;;;;;;5035656;28;20218;-73
2023/08/22 12:15:42;;;;;;;2.95;1.65;;;25.10;99.90;;;;;;5034538;28;20226;-74
2023/08/22 12:18:30;;;;;;;2.88;1.23;;;25.20;99.90;;;;;;5041381;28;20665;-73
2023/08/22 12:21:15;;;;;;;3.20;1.08;;;25.10;99.90;;;;;;5034170;28;20263;-72
2023/08/22 12:23:59;;;;;;;1.23;1.13;;;25.20;99.90;;;;;;5033309;28;20241;-74
2023/08/22 12:26:44;;;;;;;2.50;1.25;;;25.10;99.90;;;;;;5025120;28;20238;-73
2023/08/22 12:29:28;;;;;;;2.65;1.20;;;25.10;99.90;;;;;;5034458;28;20190;-73
2023/08/22 12:32:12;;;;;;;2.22;1.45;;;25.10;99.90;;;;;;5045138;28;20309;-73
2023/08/22 12:34:56;;;;;;;2.92;1.20;;;25.10;99.90;;;;;;5031612;28;20197;-73
2023/08/22 12:37:40;;;;;;;3.65;1.42;;;25.10;99.90;;;;;;5032574;28;20174;-73
2023/08/22 12:40:24;;;;;;;4.20;1.05;;;25.20;99.90;;;;;;5046615;28;20187;-73
2023/08/22 12:43:08;;;;;;;3.45;1.05;;;25.20;99.90;;;;;;5039541;28;20209;-73
2023/08/22 12:45:53;;;;;;;2.88;1.20;;;25.20;99.90;;;;;;5051374;28;20214;-72
2023/08/22 12:48:37;;;;;;;3.40;1.17;;;25.20;99.90;;;;;;5030240;28;20198;-73
2023/08/22 12:51:22;;;;;;;4.63;1.20;;;25.20;99.90;;;;;;5038505;28;20221;-73
2023/08/22 12:54:06;;;;;;;4.07;1.20;;;25.20;99.90;;;;;;5032874;28;20695;-73
2023/08/22 12:56:50;;;;;;;4.00;1.20;;;25.20;99.90;;;;;;5048898;28;20186;-74
2023/08/22 12:59:35;;;;;;;3.90;1.30;;;25.20;99.90;;;;;;5038927;28;20252;-73
2023/08/22 13:02:23;;;;;;;4.15;1.50;;;25.10;99.90;;;;;;5050185;28;20206;-74
2023/08/22 13:05:13;;;;;;;3.45;1.30;;;25.20;99.90;;;;;;5041784;28;20202;-73
2023/08/22 13:07:57;;;;;;;7.80;1.83;;;25.30;99.90;;;;;;5033102;28;20256;-73
2023/08/22 13:10:41;;;;;;;2.55;1.23;;;25.30;99.90;;;;;;5052959;28;20456;-73
2023/08/22 13:13:25;;;;;;;5.22;1.67;;;25.30;99.90;;;;;;5035122;28;20217;-73
2023/08/22 13:16:09;;;;;;;2.05;1.60;;;25.30;99.90;;;;;;5051664;28;20269;-74
2023/08/22 13:18:54;;;;;;;4.60;1.80;;;25.30;99.90;;;;;;5047363;28;20215;-74
2023/08/22 13:21:38;;;;;;;2.85;1.50;;;25.30;99.90;;;;;;5037563;28;20194;-74
2023/08/22 13:24:22;;;;;;;2.60;1.70;;;25.40;99.90;;;;;;5055252;28;20198;-73
2023/08/22 13:27:06;;;;;;;6.35;1.40;;;25.40;99.90;;;;;;5051255;28;20203;-73
2023/08/22 13:29:50;;;;;;;2.83;1.80;;;25.50;99.90;;;;;;5052083;28;20175;-73
2023/08/22 13:32:34;;;;;;;6.13;2.00;;;25.40;99.90;;;;;;5064435;28;20605;-74
2023/08/22 13:35:18;;;;;;;2.03;1.80;;;25.50;99.90;;;;;;5049219;28;20230;-74
2023/08/22 13:38:02;;;;;;;5.13;2.05;;;25.50;99.90;;;;;;5045465;28;20195;-74
2023/08/22 13:40:46;;;;;;;3.83;2.00;;;25.50;99.90;;;;;;5061486;28;20181;-75
2023/08/22 13:43:30;;;;;;;4.45;1.85;;;25.50;99.90;;;;;;5015633;28;20230;-75
2023/08/22 13:46:14;;;;;;;3.33;1.73;;;25.50;99.90;;;;;;5055217;28;20190;-74
2023/08/22 13:48:58;;;;;;;2.67;1.90;;;25.60;99.90;;;;;;5050005;28;20182;-74
2023/08/22 13:51:42;;;;;;;4.47;2.03;;;25.60;99.90;;;;;;5052194;28;20221;-75
2023/08/22 13:54:27;;;;;;;4.65;2.67;;;25.60;99.90;;;;;;5033407;28;20218;-75
2023/08/22 13:57:12;;;;;;;5.22;2.20;;;25.60;99.90;;;;;;5032431;28;20207;-75
2023/08/22 13:59:56;;;;;;;4.35;1.65;;;25.60;99.90;;;;;;5030151;28;20187;-75
2023/08/22 14:02:40;;;;;;;4.32;2.13;;;25.60;99.90;;;;;;5035534;28;20246;-73
2023/08/22 14:05:25;;;;;;;5.10;1.80;;;25.50;99.90;;;;;;5042485;28;20286;-72
2023/08/22 14:08:09;;;;;;;3.10;1.45;;;25.50;99.90;;;;;;5045529;28;20697;-74
2023/08/22 14:10:56;;;;;;;3.05;1.80;;;25.50;99.90;;;;;;5043212;28;20190;-74
2023/08/22 14:13:42;;;;;;;3.97;1.75;;;25.50;99.90;;;;;;5042573;28;20218;-73
2023/08/22 14:16:26;;;;;;;5.40;1.67;;;25.60;99.90;;;;;;5038940;28;20257;-74